sensor_id;sensor_type;location;lat;lon;timestamp;pressure;altitude;pressure_sealevel;temperature;humidity
63006;BME280;53704;52.532;6.426;2023-12-14T00:00:37;100965.97;;;3.43;100.00
63006;BME280;53704;52.532;6.426;2023-12-14T00:03:02;100973.75;;;3.46;100.00
63006;BME280;53704;52.532;6.426;2023-12-14T00:05:28;100977.53;;;3.55;100.00
63006;BME280;53704;52.532;6.426;2023-12-14T00:07:53;100984.03;;;3.51;100.00
63006;BME280;53704;52.532;6.426;2023-12-14T00:10:19;100984.81;;;3.53;100.00
63006;BME280;53704;52.532;6.426;2023-12-14T00:12:45;100991.69;;;3.55;100.00
63006;BME280;53704;52.532;6.426;2023-12-14T00:15:10;100989.47;;;3.49;100.00
63006;BME280;53704;52.532;6.426;2023-12-14T00:17:36;100995.91;;;3.47;100.00
63006;BME280;53704;52.532;6.426;2023-12-14T00:20:01;101009.81;;;3.50;100.00
63006;BME280;53704;52.532;6.426;2023-12-14T00:22:28;101009.81;;;3.50;100.00
63006;BME280;53704;52.532;6.426;2023-12-14T00:24:53;101005.78;;;3.44;100.00
63006;BME280;53704;52.532;6.426;2023-12-14T00:27:19;101012.94;;;3.44;100.00
63006;BME280;53704;52.532;6.426;2023-12-14T00:29:44;101018.16;;;3.46;100.00
63006;BME280;53704;52.532;6.426;2023-12-14T00:32:10;101026.34;;;3.42;100.00
63006;BME280;53704;52.532;6.426;2023-12-14T00:34:35;101026.03;;;3.47;100.00
63006;BME280;53704;52.532;6.426;2023-12-14T00:37:01;101028.06;;;3.43;100.00
63006;BME280;53704;52.532;6.426;2023-12-14T00:39:27;101030.50;;;3.47;100.00
63006;BME280;53704;52.532;6.426;2023-12-14T00:41:52;101043.94;;;3.45;100.00
63006;BME280;53704;52.532;6.426;2023-12-14T00:44:18;101042.78;;;3.60;100.00
63006;BME280;53704;52.532;6.426;2023-12-14T00:46:43;101040.59;;;3.54;100.00
63006;BME280;53704;52.532;6.426;2023-12-14T00:49:09;101048.56;;;3.54;100.00
63006;BME280;53704;52.532;6.426;2023-12-14T00:51:34;101048.72;;;3.40;100.00
63006;BME280;53704;52.532;6.426;2023-12-14T00:54:00;101064.69;;;3.40;100.00
63006;BME280;53704;52.532;6.426;2023-12-14T00:56:25;101073.53;;;3.40;100.00
63006;BME280;53704;52.532;6.426;2023-12-14T00:58:51;101066.28;;;3.42;100.00
63006;BME280;53704;52.532;6.426;2023-12-14T01:01:16;101066.44;;;3.52;100.00
63006;BME280;53704;52.532;6.426;2023-12-14T01:03:41;101065.50;;;3.53;100.00
63006;BME280;53704;52.532;6.426;2023-12-14T01:06:07;101076.59;;;3.47;100.00
63006;BME280;53704;52.532;6.426;2023-12-14T01:08:33;101082.75;;;3.48;100.00
63006;BME280;53704;52.532;6.426;2023-12-14T01:10:58;101087.97;;;3.49;100.00
63006;BME280;53704;52.532;6.426;2023-12-14T01:13:24;101087.63;;;3.54;100.00
63006;BME280;53704;52.532;6.426;2023-12-14T01:15:49;101093.72;;;3.56;100.00
63006;BME280;53704;52.532;6.426;2023-12-14T01:18:15;101103.50;;;3.55;100.00
63006;BME280;53704;52.532;6.426;2023-12-14T01:20:43;101105.22;;;3.56;100.00
63006;BME280;53704;52.532;6.426;2023-12-14T01:23:09;101101.72;;;3.56;100.00
63006;BME280;53704;52.532;6.426;2023-12-14T01:25:35;101095.06;;;3.61;100.00
63006;BME280;53704;52.532;6.426;2023-12-14T01:28:01;101106.13;;;3.68;100.00
63006;BME280;53704;52.532;6.426;2023-12-14T01:30:27;101121.75;;;3.73;100.00
63006;BME280;53704;52.532;6.426;2023-12-14T01:32:52;101123.78;;;3.69;100.00
63006;BME280;53704;52.532;6.426;2023-12-14T01:35:17;101128.63;;;3.64;100.00
63006;BME280;53704;52.532;6.426;2023-12-14T01:37:43;101128.50;;;3.66;100.00
63006;BME280;53704;52.532;6.426;2023-12-14T01:40:09;101128.06;;;3.72;100.00
63006;BME280;53704;52.532;6.426;2023-12-14T01:42:34;101138.31;;;3.52;100.00
63006;BME280;53704;52.532;6.426;2023-12-14T01:45:00;101150.47;;;3.56;100.00
63006;BME280;53704;52.532;6.426;2023-12-14T01:47:26;101150.47;;;3.56;100.00
63006;BME280;53704;52.532;6.426;2023-12-14T01:49:51;101159.19;;;3.58;100.00
63006;BME280;53704;52.532;6.426;2023-12-14T01:52:16;101148.31;;;3.61;100.00
63006;BME280;53704;52.532;6.426;2023-12-14T01:54:42;101155.28;;;3.51;100.00
63006;BME280;53704;52.532;6.426;2023-12-14T01:57:08;101156.44;;;3.47;100.00
63006;BME280;53704;52.532;6.426;2023-12-14T01:59:33;101165.94;;;3.51;100.00
63006;BME280;53704;52.532;6.426;2023-12-14T02:01:59;101180.28;;;3.49;100.00
63006;BME280;53704;52.532;6.426;2023-12-14T02:04:24;101188.72;;;3.42;100.00
63006;BME280;53704;52.532;6.426;2023-12-14T02:06:51;101187.44;;;3.48;100.00
63006;BME280;53704;52.532;6.426;2023-12-14T02:09:16;101181.56;;;3.43;100.00
63006;BME280;53704;52.532;6.426;2023-12-14T02:11:43;101175.94;;;3.35;100.00
63006;BME280;53704;52.532;6.426;2023-12-14T02:14:10;101183.38;;;3.42;100.00
63006;BME280;53704;52.532;6.426;2023-12-14T02:16:36;101177.53;;;3.50;100.00
63006;BME280;53704;52.532;6.426;2023-12-14T02:19:04;101185.84;;;3.46;100.00
63006;BME280;53704;52.532;6.426;2023-12-14T02:21:30;101181.03;;;3.51;100.00
63006;BME280;53704;52.532;6.426;2023-12-14T02:23:55;101192.66;;;3.50;100.00
63006;BME280;53704;52.532;6.426;2023-12-14T02:26:21;101198.22;;;3.34;100.00
63006;BME280;53704;52.532;6.426;2023-12-14T02:28:46;101207.13;;;3.46;100.00
63006;BME280;53704;52.532;6.426;2023-12-14T02:31:11;101209.28;;;3.40;100.00
63006;BME280;53704;52.532;6.426;2023-12-14T02:33:37;101216.16;;;3.43;100.00
63006;BME280;53704;52.532;6.426;2023-12-14T02:36:03;101215.94;;;3.46;100.00
63006;BME280;53704;52.532;6.426;2023-12-14T02:38:29;101226.72;;;3.44;100.00
63006;BME280;53704;52.532;6.426;2023-12-14T02:40:54;101229.03;;;3.49;100.00
63006;BME280;53704;52.532;6.426;2023-12-14T02:43:20;101235.25;;;3.50;100.00
63006;BME280;53704;52.532;6.426;2023-12-14T02:45:45;101238.13;;;3.47;100.00
63006;BME280;53704;52.532;6.426;2023-12-14T02:48:11;101240.34;;;3.40;100.00
63006;BME280;53704;52.532;6.426;2023-12-14T02:50:37;101241.84;;;3.44;100.00
63006;BME280;53704;52.532;6.426;2023-12-14T02:53:02;101243.34;;;3.35;100.00
63006;BME280;53704;52.532;6.426;2023-12-14T02:55:28;101247.28;;;3.30;100.00
63006;BME280;53704;52.532;6.426;2023-12-14T02:57:53;101243.34;;;3.35;100.00
63006;BME280;53704;52.532;6.426;2023-12-14T03:00:19;101248.31;;;3.27;100.00
63006;BME280;53704;52.532;6.426;2023-12-14T03:02:45;101251.34;;;3.35;100.00
63006;BME280;53704;52.532;6.426;2023-12-14T03:05:10;101267.94;;;3.39;100.00
63006;BME280;53704;52.532;6.426;2023-12-14T03:07:36;101269.72;;;3.25;100.00
63006;BME280;53704;52.532;6.426;2023-12-14T03:10:02;101264.19;;;3.29;100.00
63006;BME280;53704;52.532;6.426;2023-12-14T03:12:28;101267.41;;;3.34;100.00
63006;BME280;53704;52.532;6.426;2023-12-14T03:14:53;101266.00;;;3.28;100.00
63006;BME280;53704;52.532;6.426;2023-12-14T03:17:19;101275.59;;;3.31;100.00
63006;BME280;53704;52.532;6.426;2023-12-14T03:19:44;101269.41;;;3.17;100.00
63006;BME280;53704;52.532;6.426;2023-12-14T03:22:10;101279.84;;;3.20;100.00
63006;BME280;53704;52.532;6.426;2023-12-14T03:24:36;101287.91;;;3.19;100.00
63006;BME280;53704;52.532;6.426;2023-12-14T03:27:02;101283.53;;;3.18;100.00
63006;BME280;53704;52.532;6.426;2023-12-14T03:29:28;101286.31;;;3.16;100.00
63006;BME280;53704;52.532;6.426;2023-12-14T03:31:55;101296.22;;;3.14;100.00
63006;BME280;53704;52.532;6.426;2023-12-14T03:34:20;101291.19;;;3.10;100.00
63006;BME280;53704;52.532;6.426;2023-12-14T03:36:46;101298.25;;;3.11;100.00
63006;BME280;53704;52.532;6.426;2023-12-14T03:39:11;101307.06;;;3.11;100.00
63006;BME280;53704;52.532;6.426;2023-12-14T03:41:37;101306.53;;;3.06;100.00
63006;BME280;53704;52.532;6.426;2023-12-14T03:44:02;101308.78;;;3.12;100.00
63006;BME280;53704;52.532;6.426;2023-12-14T03:46:29;101307.25;;;3.08;100.00
63006;BME280;53704;52.532;6.426;2023-12-14T03:48:54;101309.09;;;3.07;100.00
63006;BME280;53704;52.532;6.426;2023-12-14T03:51:20;101319.19;;;3.02;100.00
63006;BME280;53704;52.532;6.426;2023-12-14T03:53:46;101318.53;;;2.99;100.00
63006;BME280;53704;52.532;6.426;2023-12-14T03:56:12;101317.16;;;3.06;100.00
63006;BME280;53704;52.532;6.426;2023-12-14T03:58:37;101319.81;;;3.06;100.00
63006;BME280;53704;52.532;6.426;2023-12-14T04:01:02;101321.13;;;3.13;100.00
63006;BME280;53704;52.532;6.426;2023-12-14T04:03:28;101326.97;;;3.05;100.00
63006;BME280;53704;52.532;6.426;2023-12-14T04:05:54;101335.44;;;2.98;100.00
63006;BME280;53704;52.532;6.426;2023-12-14T04:08:19;101340.78;;;2.98;100.00
63006;BME280;53704;52.532;6.426;2023-12-14T04:10:45;101343.44;;;2.98;100.00
63006;BME280;53704;52.532;6.426;2023-12-14T04:13:10;101337.34;;;2.96;100.00
63006;BME280;53704;52.532;6.426;2023-12-14T04:15:36;101346.09;;;2.98;100.00
63006;BME280;53704;52.532;6.426;2023-12-14T04:18:02;101346.94;;;2.98;100.00
63006;BME280;53704;52.532;6.426;2023-12-14T04:20:27;101352.16;;;3.00;100.00
63006;BME280;53704;52.532;6.426;2023-12-14T04:22:53;101344.47;;;2.95;100.00
63006;BME280;53704;52.532;6.426;2023-12-14T04:25:18;101346.84;;;3.00;100.00
63006;BME280;53704;52.532;6.426;2023-12-14T04:27:44;101352.06;;;3.01;100.00
63006;BME280;53704;52.532;6.426;2023-12-14T04:30:09;101350.22;;;3.02;100.00
63006;BME280;53704;52.532;6.426;2023-12-14T04:32:37;101353.47;;;3.07;100.00
63006;BME280;53704;52.532;6.426;2023-12-14T04:35:03;101358.28;;;3.15;100.00
63006;BME280;53704;52.532;6.426;2023-12-14T04:37:29;101359.31;;;3.12;100.00
63006;BME280;53704;52.532;6.426;2023-12-14T04:39:55;101361.44;;;3.07;100.00
63006;BME280;53704;52.532;6.426;2023-12-14T04:42:21;101361.97;;;3.12;100.00
63006;BME280;53704;52.532;6.426;2023-12-14T04:44:46;101367.72;;;3.06;100.00
63006;BME280;53704;52.532;6.426;2023-12-14T04:47:12;101366.00;;;3.05;100.00
63006;BME280;53704;52.532;6.426;2023-12-14T04:49:37;101370.38;;;3.06;100.00
63006;BME280;53704;52.532;6.426;2023-12-14T04:52:03;101378.56;;;3.03;100.00
63006;BME280;53704;52.532;6.426;2023-12-14T04:54:29;101381.91;;;2.92;100.00
63006;BME280;53704;52.532;6.426;2023-12-14T04:56:54;101389.19;;;3.03;100.00
63006;BME280;53704;52.532;6.426;2023-12-14T04:59:19;101392.69;;;3.03;100.00
63006;BME280;53704;52.532;6.426;2023-12-14T05:01:45;101401.41;;;2.93;100.00
63006;BME280;53704;52.532;6.426;2023-12-14T05:04:10;101409.16;;;2.96;100.00
63006;BME280;53704;52.532;6.426;2023-12-14T05:06:38;101406.88;;;3.04;100.00
63006;BME280;53704;52.532;6.426;2023-12-14T05:09:03;101417.50;;;3.04;100.00
63006;BME280;53704;52.532;6.426;2023-12-14T05:11:30;101426.81;;;2.97;100.00
63006;BME280;53704;52.532;6.426;2023-12-14T05:13:56;101428.94;;;2.92;100.00
63006;BME280;53704;52.532;6.426;2023-12-14T05:16:22;101435.00;;;2.94;100.00
63006;BME280;53704;52.532;6.426;2023-12-14T05:18:52;101436.53;;;2.98;100.00
63006;BME280;53704;52.532;6.426;2023-12-14T05:21:17;101437.56;;;2.95;100.00
63006;BME280;53704;52.532;6.426;2023-12-14T05:23:43;101442.13;;;2.93;100.00
63006;BME280;53704;52.532;6.426;2023-12-14T05:26:08;101450.97;;;2.94;100.00
63006;BME280;53704;52.532;6.426;2023-12-14T05:28:34;101452.09;;;3.04;100.00
63006;BME280;53704;52.532;6.426;2023-12-14T05:31:00;101466.44;;;3.01;100.00
63006;BME280;53704;52.532;6.426;2023-12-14T05:33:26;101463.47;;;3.06;100.00
63006;BME280;53704;52.532;6.426;2023-12-14T05:35:51;101452.03;;;3.18;100.00
63006;BME280;53704;52.532;6.426;2023-12-14T05:38:17;101473.66;;;2.99;100.00
63006;BME280;53704;52.532;6.426;2023-12-14T05:40:43;101470.31;;;3.10;100.00
63006;BME280;53704;52.532;6.426;2023-12-14T05:43:10;101473.91;;;3.09;100.00
63006;BME280;53704;52.532;6.426;2023-12-14T05:45:35;101481.34;;;3.04;100.00
63006;BME280;53704;52.532;6.426;2023-12-14T05:48:01;101487.03;;;3.12;100.00
63006;BME280;53704;52.532;6.426;2023-12-14T05:50:27;101489.34;;;3.04;100.00
63006;BME280;53704;52.532;6.426;2023-12-14T05:52:53;101499.00;;;3.05;100.00
63006;BME280;53704;52.532;6.426;2023-12-14T05:55:18;101505.84;;;3.09;100.00
63006;BME280;53704;52.532;6.426;2023-12-14T05:57:47;101510.81;;;3.01;100.00
63006;BME280;53704;52.532;6.426;2023-12-14T06:00:13;101514.50;;;2.98;100.00
63006;BME280;53704;52.532;6.426;2023-12-14T06:02:39;101519.44;;;3.04;100.00
63006;BME280;53704;52.532;6.426;2023-12-14T06:05:06;101522.16;;;3.17;100.00
63006;BME280;53704;52.532;6.426;2023-12-14T06:07:32;101528.22;;;3.19;100.00
63006;BME280;53704;52.532;6.426;2023-12-14T06:09:57;101534.47;;;3.33;100.00
63006;BME280;53704;52.532;6.426;2023-12-14T06:12:23;101536.63;;;3.13;100.00
63006;BME280;53704;52.532;6.426;2023-12-14T06:14:48;101548.31;;;3.11;100.00
63006;BME280;53704;52.532;6.426;2023-12-14T06:17:15;101545.94;;;3.06;100.00
63006;BME280;53704;52.532;6.426;2023-12-14T06:19:41;101545.75;;;3.09;100.00
63006;BME280;53704;52.532;6.426;2023-12-14T06:22:06;101553.28;;;3.02;100.00
63006;BME280;53704;52.532;6.426;2023-12-14T06:24:32;101554.41;;;2.98;100.00
63006;BME280;53704;52.532;6.426;2023-12-14T06:26:57;101559.53;;;3.01;100.00
63006;BME280;53704;52.532;6.426;2023-12-14T06:29:23;101558.13;;;3.10;100.00
63006;BME280;53704;52.532;6.426;2023-12-14T06:31:48;101564.56;;;3.06;100.00
63006;BME280;53704;52.532;6.426;2023-12-14T06:34:15;101577.97;;;3.04;100.00
63006;BME280;53704;52.532;6.426;2023-12-14T06:36:45;101584.13;;;3.05;100.00
63006;BME280;53704;52.532;6.426;2023-12-14T06:39:10;101590.13;;;3.08;100.00
63006;BME280;53704;52.532;6.426;2023-12-14T06:41:36;101586.78;;;3.05;100.00
63006;BME280;53704;52.532;6.426;2023-12-14T06:44:02;101587.78;;;2.89;100.00
63006;BME280;53704;52.532;6.426;2023-12-14T06:46:28;101590.72;;;2.99;100.00
63006;BME280;53704;52.532;6.426;2023-12-14T06:48:53;101595.16;;;2.99;100.00
63006;BME280;53704;52.532;6.426;2023-12-14T06:51:20;101601.16;;;2.88;100.00
63006;BME280;53704;52.532;6.426;2023-12-14T06:53:46;101605.31;;;2.92;100.00
63006;BME280;53704;52.532;6.426;2023-12-14T06:56:13;101597.81;;;2.99;100.00
63006;BME280;53704;52.532;6.426;2023-12-14T06:58:39;101612.09;;;2.98;100.00
63006;BME280;53704;52.532;6.426;2023-12-14T07:01:05;101615.13;;;2.92;100.00
63006;BME280;53704;52.532;6.426;2023-12-14T07:03:31;101610.94;;;2.87;100.00
63006;BME280;53704;52.532;6.426;2023-12-14T07:05:58;101609.22;;;2.86;100.00
63006;BME280;53704;52.532;6.426;2023-12-14T07:08:23;101616.63;;;2.96;100.00
63006;BME280;53704;52.532;6.426;2023-12-14T07:10:49;101604.84;;;3.00;100.00
63006;BME280;53704;52.532;6.426;2023-12-14T07:13:15;101614.53;;;3.15;100.00
63006;BME280;53704;52.532;6.426;2023-12-14T07:15:40;101613.38;;;3.05;100.00
63006;BME280;53704;52.532;6.426;2023-12-14T07:18:06;101609.59;;;3.09;100.00
63006;BME280;53704;52.532;6.426;2023-12-14T07:20:31;101623.28;;;3.03;100.00
63006;BME280;53704;52.532;6.426;2023-12-14T07:22:57;101628.97;;;3.11;100.00
63006;BME280;53704;52.532;6.426;2023-12-14T07:25:22;101640.00;;;3.05;100.00
63006;BME280;53704;52.532;6.426;2023-12-14T07:27:47;101642.75;;;3.03;100.00
63006;BME280;53704;52.532;6.426;2023-12-14T07:30:13;101655.03;;;3.06;100.00
63006;BME280;53704;52.532;6.426;2023-12-14T07:32:38;101670.59;;;2.98;100.00
63006;BME280;53704;52.532;6.426;2023-12-14T07:35:05;101660.25;;;3.07;100.00
63006;BME280;53704;52.532;6.426;2023-12-14T07:37:30;101666.78;;;3.02;100.00
63006;BME280;53704;52.532;6.426;2023-12-14T07:39:56;101671.53;;;3.11;100.00
63006;BME280;53704;52.532;6.426;2023-12-14T07:42:21;101673.53;;;3.07;100.00
63006;BME280;53704;52.532;6.426;2023-12-14T07:44:47;101671.53;;;3.11;100.00
63006;BME280;53704;52.532;6.426;2023-12-14T07:47:12;101682.09;;;3.13;100.00
63006;BME280;53704;52.532;6.426;2023-12-14T07:49:38;101690.44;;;3.06;100.00
63006;BME280;53704;52.532;6.426;2023-12-14T07:52:04;101696.56;;;3.08;100.00
63006;BME280;53704;52.532;6.426;2023-12-14T07:54:30;101698.44;;;3.06;100.00
63006;BME280;53704;52.532;6.426;2023-12-14T07:56:55;101707.28;;;3.07;100.00
63006;BME280;53704;52.532;6.426;2023-12-14T07:59:20;101714.28;;;2.94;100.00
63006;BME280;53704;52.532;6.426;2023-12-14T08:01:47;101714.75;;;3.00;100.00
63006;BME280;53704;52.532;6.426;2023-12-14T08:04:12;101722.16;;;2.95;100.00
63006;BME280;53704;52.532;6.426;2023-12-14T08:06:38;101721.91;;;3.00;100.00
63006;BME280;53704;52.532;6.426;2023-12-14T08:09:06;101731.78;;;2.98;100.00
63006;BME280;53704;52.532;6.426;2023-12-14T08:11:33;101733.88;;;2.93;100.00
63006;BME280;53704;52.532;6.426;2023-12-14T08:13:58;101736.63;;;2.91;100.00
63006;BME280;53704;52.532;6.426;2023-12-14T08:16:24;101740.22;;;2.90;100.00
63006;BME280;53704;52.532;6.426;2023-12-14T08:18:49;101754.19;;;2.94;100.00
63006;BME280;53704;52.532;6.426;2023-12-14T08:21:15;101766.81;;;2.90;100.00
63006;BME280;53704;52.532;6.426;2023-12-14T08:23:41;101768.53;;;2.91;100.00
63006;BME280;53704;52.532;6.426;2023-12-14T08:26:07;101763.44;;;3.02;100.00
63006;BME280;53704;52.532;6.426;2023-12-14T08:28:33;101776.91;;;2.99;100.00
63006;BME280;53704;52.532;6.426;2023-12-14T08:31:00;101775.66;;;3.05;100.00
63006;BME280;53704;52.532;6.426;2023-12-14T08:33:29;101782.59;;;2.93;100.00
63006;BME280;53704;52.532;6.426;2023-12-14T08:35:55;101785.16;;;2.95;100.00
63006;BME280;53704;52.532;6.426;2023-12-14T08:38:20;101787.25;;;2.89;100.00
63006;BME280;53704;52.532;6.426;2023-12-14T08:40:46;101789.28;;;2.84;100.00
63006;BME280;53704;52.532;6.426;2023-12-14T08:43:12;101788.53;;;2.82;100.00
63006;BME280;53704;52.532;6.426;2023-12-14T08:45:37;101788.28;;;2.87;100.00
63006;BME280;53704;52.532;6.426;2023-12-14T08:48:03;101791.41;;;2.94;100.00
63006;BME280;53704;52.532;6.426;2023-12-14T08:50:29;101799.22;;;2.97;100.00
63006;BME280;53704;52.532;6.426;2023-12-14T08:52:54;101798.09;;;3.01;100.00
63006;BME280;53704;52.532;6.426;2023-12-14T08:55:47;101801.44;;;3.04;100.00
63006;BME280;53704;52.532;6.426;2023-12-14T08:58:12;101798.09;;;3.01;100.00
63006;BME280;53704;52.532;6.426;2023-12-14T09:00:38;101799.03;;;3.00;100.00
63006;BME280;53704;52.532;6.426;2023-12-14T09:03:04;101809.53;;;3.17;100.00
63006;BME280;53704;52.532;6.426;2023-12-14T09:05:29;101803.16;;;3.05;100.00
63006;BME280;53704;52.532;6.426;2023-12-14T09:07:54;101809.13;;;3.09;100.00
63006;BME280;53704;52.532;6.426;2023-12-14T09:10:22;101813.03;;;3.18;100.00
63006;BME280;53704;52.532;6.426;2023-12-14T09:12:48;101817.34;;;3.35;100.00
63006;BME280;53704;52.532;6.426;2023-12-14T09:15:13;101825.41;;;3.19;100.00
63006;BME280;53704;52.532;6.426;2023-12-14T09:17:41;101824.00;;;3.13;100.00
63006;BME280;53704;52.532;6.426;2023-12-14T09:20:08;101832.53;;;3.18;100.00
63006;BME280;53704;52.532;6.426;2023-12-14T09:22:33;101835.25;;;3.33;100.00
63006;BME280;53704;52.532;6.426;2023-12-14T09:24:59;101841.09;;;3.23;100.00
63006;BME280;53704;52.532;6.426;2023-12-14T09:27:24;101844.75;;;3.37;100.00
63006;BME280;53704;52.532;6.426;2023-12-14T09:29:51;101841.97;;;3.38;100.00
63006;BME280;53704;52.532;6.426;2023-12-14T09:32:17;101844.19;;;3.46;100.00
63006;BME280;53704;52.532;6.426;2023-12-14T09:34:43;101847.00;;;3.29;100.00
63006;BME280;53704;52.532;6.426;2023-12-14T09:37:08;101847.13;;;3.41;100.00
63006;BME280;53704;52.532;6.426;2023-12-14T09:39:34;101854.66;;;3.49;100.00
63006;BME280;53704;52.532;6.426;2023-12-14T09:42:03;101861.56;;;3.37;100.00
63006;BME280;53704;52.532;6.426;2023-12-14T09:44:30;101866.06;;;3.37;100.00
63006;BME280;53704;52.532;6.426;2023-12-14T09:46:58;101873.06;;;3.38;100.00
63006;BME280;53704;52.532;6.426;2023-12-14T09:49:26;101877.75;;;3.49;100.00
63006;BME280;53704;52.532;6.426;2023-12-14T09:51:57;101883.91;;;3.35;100.00
63006;BME280;53704;52.532;6.426;2023-12-14T09:54:24;101885.63;;;3.36;100.00
63006;BME280;53704;52.532;6.426;2023-12-14T09:56:50;101881.13;;;3.22;100.00
63006;BME280;53704;52.532;6.426;2023-12-14T09:59:17;101879.47;;;3.19;100.00
63006;BME280;53704;52.532;6.426;2023-12-14T10:01:43;101879.47;;;3.19;100.00
63006;BME280;53704;52.532;6.426;2023-12-14T10:04:10;101871.69;;;3.47;100.00
63006;BME280;53704;52.532;6.426;2023-12-14T10:06:37;101876.09;;;3.32;100.00
63006;BME280;53704;52.532;6.426;2023-12-14T10:09:03;101883.34;;;3.44;100.00
63006;BME280;53704;52.532;6.426;2023-12-14T10:11:29;101896.88;;;3.55;100.00
63006;BME280;53704;52.532;6.426;2023-12-14T10:13:55;101893.44;;;3.39;100.00
63006;BME280;53704;52.532;6.426;2023-12-14T10:16:31;101894.38;;;3.38;100.00
63006;BME280;53704;52.532;6.426;2023-12-14T10:18:58;101892.06;;;3.32;100.00
63006;BME280;53704;52.532;6.426;2023-12-14T10:21:25;101904.72;;;3.28;100.00
63006;BME280;53704;52.532;6.426;2023-12-14T10:23:51;101901.09;;;3.29;100.00
63006;BME280;53704;52.532;6.426;2023-12-14T10:26:17;101900.44;;;3.40;100.00
63006;BME280;53704;52.532;6.426;2023-12-14T10:28:45;101909.41;;;3.39;100.00
63006;BME280;53704;52.532;6.426;2023-12-14T10:31:10;101921.06;;;3.36;100.00
63006;BME280;53704;52.532;6.426;2023-12-14T10:33:36;101929.13;;;3.65;100.00
63006;BME280;53704;52.532;6.426;2023-12-14T10:36:03;101929.41;;;3.91;100.00
63006;BME280;53704;52.532;6.426;2023-12-14T10:38:29;101921.69;;;3.86;100.00
63006;BME280;53704;52.532;6.426;2023-12-14T10:40:57;101928.09;;;3.68;100.00
63006;BME280;53704;52.532;6.426;2023-12-14T10:43:24;101923.06;;;3.77;100.00
63006;BME280;53704;52.532;6.426;2023-12-14T10:45:50;101932.69;;;3.66;100.00
63006;BME280;53704;52.532;6.426;2023-12-14T10:48:19;101933.06;;;3.74;100.00
63006;BME280;53704;52.532;6.426;2023-12-14T10:50:46;101930.69;;;3.69;100.00
63006;BME280;53704;52.532;6.426;2023-12-14T10:53:13;101927.38;;;3.80;100.00
63006;BME280;53704;52.532;6.426;2023-12-14T10:55:44;101933.63;;;3.79;100.00
63006;BME280;53704;52.532;6.426;2023-12-14T10:58:10;101938.44;;;4.17;100.00
63006;BME280;53704;52.532;6.426;2023-12-14T11:00:37;101934.81;;;3.89;100.00
63006;BME280;53704;52.532;6.426;2023-12-14T11:03:05;101941.72;;;3.77;100.00
63006;BME280;53704;52.532;6.426;2023-12-14T11:05:32;101938.97;;;3.93;100.00
63006;BME280;53704;52.532;6.426;2023-12-14T11:08:03;101952.09;;;3.82;100.00
63006;BME280;53704;52.532;6.426;2023-12-14T11:10:42;101956.94;;;3.75;100.00
63006;BME280;53704;52.532;6.426;2023-12-14T11:13:12;101951.72;;;3.88;100.00
63006;BME280;53704;52.532;6.426;2023-12-14T11:15:49;101961.25;;;3.78;100.00
63006;BME280;53704;52.532;6.426;2023-12-14T11:23:35;101960.00;;;3.84;100.00
63006;BME280;53704;52.532;6.426;2023-12-14T11:26:06;101962.00;;;3.80;100.00
63006;BME280;53704;52.532;6.426;2023-12-14T11:28:40;101956.22;;;4.02;100.00
63006;BME280;53704;52.532;6.426;2023-12-14T11:31:12;101949.63;;;3.79;100.00
63006;BME280;53704;52.532;6.426;2023-12-14T11:33:38;101962.28;;;3.75;100.00
63006;BME280;53704;52.532;6.426;2023-12-14T11:36:05;101964.28;;;3.72;100.00
63006;BME280;53704;52.532;6.426;2023-12-14T11:38:31;101969.84;;;4.12;100.00
63006;BME280;53704;52.532;6.426;2023-12-14T11:40:58;101970.03;;;3.94;100.00
63006;BME280;53704;52.532;6.426;2023-12-14T11:43:24;101965.81;;;4.05;100.00
63006;BME280;53704;52.532;6.426;2023-12-14T11:45:52;101959.56;;;4.49;100.00
63006;BME280;53704;52.532;6.426;2023-12-14T11:48:18;101970.50;;;4.15;100.00
63006;BME280;53704;52.532;6.426;2023-12-14T11:50:46;101976.06;;;4.41;100.00
63006;BME280;53704;52.532;6.426;2023-12-14T11:53:12;101985.56;;;4.31;100.00
63006;BME280;53704;52.532;6.426;2023-12-14T11:55:40;101979.94;;;4.35;100.00
63006;BME280;53704;52.532;6.426;2023-12-14T11:58:07;101981.63;;;4.08;100.00
63006;BME280;53704;52.532;6.426;2023-12-14T12:00:33;101993.66;;;4.29;100.00
63006;BME280;53704;52.532;6.426;2023-12-14T12:05:49;101991.00;;;4.44;100.00
63006;BME280;53704;52.532;6.426;2023-12-14T12:08:16;101995.56;;;4.27;100.00
63006;BME280;53704;52.532;6.426;2023-12-14T12:10:44;101991.47;;;4.22;100.00
63006;BME280;53704;52.532;6.426;2023-12-14T12:13:16;101990.63;;;4.35;100.00
63006;BME280;53704;52.532;6.426;2023-12-14T12:15:42;101988.31;;;4.15;100.00
63006;BME280;53704;52.532;6.426;2023-12-14T12:18:12;101994.50;;;4.15;100.00
63006;BME280;53704;52.532;6.426;2023-12-14T12:20:38;101980.69;;;4.66;100.00
63006;BME280;53704;52.532;6.426;2023-12-14T12:23:03;101981.19;;;4.73;100.00
63006;BME280;53704;52.532;6.426;2023-12-14T12:25:30;101978.72;;;4.56;100.00
63006;BME280;53704;52.532;6.426;2023-12-14T12:27:59;101980.78;;;4.65;100.00
63006;BME280;53704;52.532;6.426;2023-12-14T12:30:25;101980.84;;;4.92;100.00
63006;BME280;53704;52.532;6.426;2023-12-14T12:32:50;101989.06;;;4.46;100.00
63006;BME280;53704;52.532;6.426;2023-12-14T12:35:20;101996.03;;;4.63;100.00
63006;BME280;53704;52.532;6.426;2023-12-14T12:37:46;101993.06;;;4.67;100.00
63006;BME280;53704;52.532;6.426;2023-12-14T12:40:12;102007.06;;;4.85;100.00
63006;BME280;53704;52.532;6.426;2023-12-14T12:42:38;102005.66;;;4.65;100.00
63006;BME280;53704;52.532;6.426;2023-12-14T12:45:04;102007.56;;;4.49;100.00
63006;BME280;53704;52.532;6.426;2023-12-14T12:47:30;102007.94;;;4.86;100.00
63006;BME280;53704;52.532;6.426;2023-12-14T12:49:55;102008.84;;;4.99;100.00
63006;BME280;53704;52.532;6.426;2023-12-14T12:52:21;102009.53;;;5.03;100.00